sensor_id;sensor_type;location;lat;lon;timestamp;pressure;altitude;pressure_sealevel;temperature;humidity
22000;BME280;11164;48.818;2.322;2023-03-23T00:00:36;99711.13;;;15.33;43.75
22000;BME280;11164;48.818;2.322;2023-03-23T00:03:02;99725.44;;;15.07;44.81
22000;BME280;11164;48.818;2.322;2023-03-23T00:05:27;99726.97;;;15.19;44.17
22000;BME280;11164;48.818;2.322;2023-03-23T00:07:54;99704.75;;;15.23;44.07
22000;BME280;11164;48.818;2.322;2023-03-23T00:10:20;99714.97;;;15.15;44.24
22000;BME280;11164;48.818;2.322;2023-03-23T00:12:46;99719.00;;;15.13;44.26
22000;BME280;11164;48.818;2.322;2023-03-23T00:15:15;99713.38;;;14.97;44.71
22000;BME280;11164;48.818;2.322;2023-03-23T00:17:42;99701.44;;;14.98;44.48
22000;BME280;11164;48.818;2.322;2023-03-23T00:20:09;99703.09;;;14.99;44.47
22000;BME280;11164;48.818;2.322;2023-03-23T00:22:37;99694.56;;;15.13;44.03
22000;BME280;11164;48.818;2.322;2023-03-23T00:25:07;99687.75;;;15.10;44.27
22000;BME280;11164;48.818;2.322;2023-03-23T00:27:33;99702.91;;;15.28;43.67
22000;BME280;11164;48.818;2.322;2023-03-23T00:29:59;99688.88;;;15.14;43.99
22000;BME280;11164;48.818;2.322;2023-03-23T00:32:25;99697.09;;;15.19;43.88
22000;BME280;11164;48.818;2.322;2023-03-23T00:34:57;99700.91;;;15.18;43.96
22000;BME280;11164;48.818;2.322;2023-03-23T00:37:26;99699.06;;;15.24;43.48
22000;BME280;11164;48.818;2.322;2023-03-23T00:39:51;99702.09;;;15.28;43.22
22000;BME280;11164;48.818;2.322;2023-03-23T00:42:22;99702.34;;;15.26;43.67
22000;BME280;11164;48.818;2.322;2023-03-23T00:44:48;99687.00;;;15.15;43.68
22000;BME280;11164;48.818;2.322;2023-03-23T00:47:13;99683.16;;;15.11;43.93
22000;BME280;11164;48.818;2.322;2023-03-23T00:49:39;99678.66;;;14.99;44.13
22000;BME280;11164;48.818;2.322;2023-03-23T00:52:06;99673.44;;;15.15;43.95
22000;BME280;11164;48.818;2.322;2023-03-23T00:54:32;99666.66;;;15.17;43.90
22000;BME280;11164;48.818;2.322;2023-03-23T00:56:59;99685.94;;;15.16;43.99
22000;BME280;11164;48.818;2.322;2023-03-23T00:59:25;99691.75;;;15.25;43.77
22000;BME280;11164;48.818;2.322;2023-03-23T01:01:50;99686.63;;;15.28;43.70
22000;BME280;11164;48.818;2.322;2023-03-23T01:04:16;99688.91;;;15.36;43.31
22000;BME280;11164;48.818;2.322;2023-03-23T01:06:43;99680.25;;;15.40;43.32
22000;BME280;11164;48.818;2.322;2023-03-23T01:09:13;99675.19;;;15.48;43.21
22000;BME280;11164;48.818;2.322;2023-03-23T01:11:45;99682.97;;;15.40;43.40
22000;BME280;11164;48.818;2.322;2023-03-23T01:14:12;99700.78;;;15.30;43.66
22000;BME280;11164;48.818;2.322;2023-03-23T01:16:38;99701.00;;;15.07;44.22
22000;BME280;11164;48.818;2.322;2023-03-23T01:19:04;99704.56;;;15.29;43.83
22000;BME280;11164;48.818;2.322;2023-03-23T01:21:29;99699.44;;;15.11;44.19
22000;BME280;11164;48.818;2.322;2023-03-23T01:23:55;99672.91;;;15.18;44.09
22000;BME280;11164;48.818;2.322;2023-03-23T01:26:23;99668.00;;;15.15;44.23
22000;BME280;11164;48.818;2.322;2023-03-23T01:28:49;99680.91;;;15.08;44.38
22000;BME280;11164;48.818;2.322;2023-03-23T01:31:17;99681.22;;;14.89;44.81
22000;BME280;11164;48.818;2.322;2023-03-23T01:33:43;99674.03;;;15.00;44.63
22000;BME280;11164;48.818;2.322;2023-03-23T01:36:15;99669.31;;;15.12;44.77
22000;BME280;11164;48.818;2.322;2023-03-23T01:38:42;99666.78;;;15.06;44.55
22000;BME280;11164;48.818;2.322;2023-03-23T01:41:08;99654.38;;;15.10;44.28
22000;BME280;11164;48.818;2.322;2023-03-23T01:43:33;99657.50;;;15.02;44.36
22000;BME280;11164;48.818;2.322;2023-03-23T01:45:59;99656.63;;;15.18;43.94
22000;BME280;11164;48.818;2.322;2023-03-23T01:48:32;99643.34;;;15.22;44.35
22000;BME280;11164;48.818;2.322;2023-03-23T01:51:08;99640.94;;;15.20;44.45
22000;BME280;11164;48.818;2.322;2023-03-23T01:53:38;99638.81;;;15.05;44.50
22000;BME280;11164;48.818;2.322;2023-03-23T01:56:06;99618.47;;;15.08;44.14
22000;BME280;11164;48.818;2.322;2023-03-23T01:58:34;99620.13;;;15.09;44.29
22000;BME280;11164;48.818;2.322;2023-03-23T02:01:04;99626.78;;;14.96;44.64
22000;BME280;11164;48.818;2.322;2023-03-23T02:03:31;99621.16;;;15.03;44.45
22000;BME280;11164;48.818;2.322;2023-03-23T02:05:58;99618.88;;;14.94;44.65
22000;BME280;11164;48.818;2.322;2023-03-23T02:08:27;99623.16;;;15.12;44.25
22000;BME280;11164;48.818;2.322;2023-03-23T02:10:54;99623.66;;;14.87;44.75
22000;BME280;11164;48.818;2.322;2023-03-23T02:13:20;99610.25;;;14.97;44.67
22000;BME280;11164;48.818;2.322;2023-03-23T02:15:52;99632.50;;;14.99;44.86
22000;BME280;11164;48.818;2.322;2023-03-23T02:26:41;99663.28;;;14.88;45.67
22000;BME280;11164;48.818;2.322;2023-03-23T02:35:04;99669.06;;;14.75;45.07
22000;BME280;11164;48.818;2.322;2023-03-23T02:37:52;99669.00;;;15.09;45.04
22000;BME280;11164;48.818;2.322;2023-03-23T02:40:24;99670.03;;;15.03;44.50
22000;BME280;11164;48.818;2.322;2023-03-23T02:42:53;99664.13;;;14.89;44.98
22000;BME280;11164;48.818;2.322;2023-03-23T02:45:22;99671.75;;;14.92;44.83
22000;BME280;11164;48.818;2.322;2023-03-23T02:47:50;99673.78;;;15.02;44.60
22000;BME280;11164;48.818;2.322;2023-03-23T02:50:17;99658.72;;;15.11;44.36
22000;BME280;11164;48.818;2.322;2023-03-23T02:52:45;99668.78;;;14.93;44.88
22000;BME280;11164;48.818;2.322;2023-03-23T02:55:13;99656.38;;;14.80;45.11
22000;BME280;11164;48.818;2.322;2023-03-23T02:57:39;99658.44;;;14.90;45.05
22000;BME280;11164;48.818;2.322;2023-03-23T03:00:07;99652.75;;;14.92;44.83
22000;BME280;11164;48.818;2.322;2023-03-23T03:02:37;99656.16;;;15.04;44.56
22000;BME280;11164;48.818;2.322;2023-03-23T03:11:02;99647.78;;;15.06;44.92
22000;BME280;11164;48.818;2.322;2023-03-23T03:16:05;99636.34;;;15.04;44.59
22000;BME280;11164;48.818;2.322;2023-03-23T03:18:44;99625.44;;;14.98;44.64
22000;BME280;11164;48.818;2.322;2023-03-23T03:21:13;99639.44;;;15.12;44.39
22000;BME280;11164;48.818;2.322;2023-03-23T03:23:42;99646.59;;;14.79;45.28
22000;BME280;11164;48.818;2.322;2023-03-23T03:26:11;99648.41;;;14.74;45.43
22000;BME280;11164;48.818;2.322;2023-03-23T03:28:38;99645.06;;;15.06;44.52
22000;BME280;11164;48.818;2.322;2023-03-23T03:31:05;99638.47;;;15.18;44.11
22000;BME280;11164;48.818;2.322;2023-03-23T03:33:32;99644.31;;;15.10;44.52
22000;BME280;11164;48.818;2.322;2023-03-23T03:36:03;99652.72;;;15.09;44.62
22000;BME280;11164;48.818;2.322;2023-03-23T03:38:44;99640.16;;;15.03;44.85
22000;BME280;11164;48.818;2.322;2023-03-23T03:41:10;99645.06;;;15.28;44.01
22000;BME280;11164;48.818;2.322;2023-03-23T03:43:35;99636.75;;;15.34;43.90
22000;BME280;11164;48.818;2.322;2023-03-23T03:46:01;99630.38;;;15.24;44.19
22000;BME280;11164;48.818;2.322;2023-03-23T03:48:26;99652.72;;;15.09;44.59
22000;BME280;11164;48.818;2.322;2023-03-23T03:50:52;99628.84;;;15.11;44.36
22000;BME280;11164;48.818;2.322;2023-03-23T03:53:17;99645.69;;;15.13;44.28
22000;BME280;11164;48.818;2.322;2023-03-23T03:55:43;99641.34;;;15.12;44.22
22000;BME280;11164;48.818;2.322;2023-03-23T03:58:10;99644.38;;;15.15;44.08
22000;BME280;11164;48.818;2.322;2023-03-23T04:00:35;99646.03;;;14.94;44.52
22000;BME280;11164;48.818;2.322;2023-03-23T04:03:01;99645.81;;;15.23;44.13
22000;BME280;11164;48.818;2.322;2023-03-23T04:05:26;99662.59;;;15.15;44.17
22000;BME280;11164;48.818;2.322;2023-03-23T04:07:54;99665.75;;;14.90;44.73
22000;BME280;11164;48.818;2.322;2023-03-23T04:10:20;99665.09;;;14.99;44.53
22000;BME280;11164;48.818;2.322;2023-03-23T04:12:49;99655.69;;;15.07;44.43
22000;BME280;11164;48.818;2.322;2023-03-23T04:15:15;99657.16;;;15.15;44.15
22000;BME280;11164;48.818;2.322;2023-03-23T04:17:40;99660.00;;;15.25;43.76
22000;BME280;11164;48.818;2.322;2023-03-23T04:20:08;99666.00;;;15.27;43.99
22000;BME280;11164;48.818;2.322;2023-03-23T04:22:40;99663.97;;;15.17;44.16
22000;BME280;11164;48.818;2.322;2023-03-23T04:25:09;99651.41;;;15.11;44.38
22000;BME280;11164;48.818;2.322;2023-03-23T04:27:36;99653.34;;;14.77;45.26
22000;BME280;11164;48.818;2.322;2023-03-23T04:30:01;99647.41;;;14.97;44.80
22000;BME280;11164;48.818;2.322;2023-03-23T04:32:28;99673.38;;;15.10;44.62
22000;BME280;11164;48.818;2.322;2023-03-23T04:34:56;99677.97;;;15.09;44.37
22000;BME280;11164;48.818;2.322;2023-03-23T04:37:24;99677.06;;;15.04;44.84
22000;BME280;11164;48.818;2.322;2023-03-23T04:39:55;99684.78;;;15.12;44.64
22000;BME280;11164;48.818;2.322;2023-03-23T04:42:30;99680.44;;;15.11;44.68
22000;BME280;11164;48.818;2.322;2023-03-23T04:44:59;99676.03;;;15.05;44.95
22000;BME280;11164;48.818;2.322;2023-03-23T04:47:26;99684.03;;;14.94;45.17
22000;BME280;11164;48.818;2.322;2023-03-23T04:49:56;99688.88;;;15.14;44.70
22000;BME280;11164;48.818;2.322;2023-03-23T04:52:22;99693.47;;;14.92;45.39
22000;BME280;11164;48.818;2.322;2023-03-23T04:54:50;99693.16;;;15.27;44.41
22000;BME280;11164;48.818;2.322;2023-03-23T04:57:15;99679.50;;;15.22;44.43
22000;BME280;11164;48.818;2.322;2023-03-23T04:59:42;99688.06;;;15.14;44.64
22000;BME280;11164;48.818;2.322;2023-03-23T05:02:08;99679.44;;;15.17;44.58
22000;BME280;11164;48.818;2.322;2023-03-23T05:04:34;99686.34;;;15.08;44.91
22000;BME280;11164;48.818;2.322;2023-03-23T05:06:59;99685.16;;;14.98;44.82
22000;BME280;11164;48.818;2.322;2023-03-23T05:09:25;99687.38;;;15.02;44.98
22000;BME280;11164;48.818;2.322;2023-03-23T05:11:50;99685.97;;;14.99;44.83
22000;BME280;11164;48.818;2.322;2023-03-23T05:14:16;99689.38;;;14.89;45.14
22000;BME280;11164;48.818;2.322;2023-03-23T05:16:41;99690.00;;;14.79;45.42
22000;BME280;11164;48.818;2.322;2023-03-23T05:19:07;99686.66;;;14.89;45.08
22000;BME280;11164;48.818;2.322;2023-03-23T05:21:33;99681.84;;;15.13;44.59
22000;BME280;11164;48.818;2.322;2023-03-23T05:23:59;99681.88;;;14.96;44.83
22000;BME280;11164;48.818;2.322;2023-03-23T05:26:26;99692.13;;;15.11;44.54
22000;BME280;11164;48.818;2.322;2023-03-23T05:28:54;99677.28;;;15.19;44.39
22000;BME280;11164;48.818;2.322;2023-03-23T05:31:21;99691.69;;;15.19;44.27
22000;BME280;11164;48.818;2.322;2023-03-23T05:33:46;99684.50;;;14.91;44.79
22000;BME280;11164;48.818;2.322;2023-03-23T05:36:12;99689.13;;;14.74;45.10
22000;BME280;11164;48.818;2.322;2023-03-23T05:38:39;99704.19;;;14.65;45.47
22000;BME280;11164;48.818;2.322;2023-03-23T05:41:07;99689.31;;;14.84;44.80
22000;BME280;11164;48.818;2.322;2023-03-23T05:43:33;99696.81;;;14.99;44.48
22000;BME280;11164;48.818;2.322;2023-03-23T05:45:58;99705.50;;;14.96;44.53
22000;BME280;11164;48.818;2.322;2023-03-23T05:48:24;99704.84;;;14.89;44.63
22000;BME280;11164;48.818;2.322;2023-03-23T05:50:49;99689.69;;;14.76;44.93
22000;BME280;11164;48.818;2.322;2023-03-23T05:53:15;99687.09;;;14.47;45.64
22000;BME280;11164;48.818;2.322;2023-03-23T05:55:41;99692.06;;;14.72;44.94
22000;BME280;11164;48.818;2.322;2023-03-23T05:58:06;99694.06;;;14.77;44.88
22000;BME280;11164;48.818;2.322;2023-03-23T06:00:32;99691.91;;;14.79;44.87
22000;BME280;11164;48.818;2.322;2023-03-23T06:02:57;99689.19;;;14.62;45.35
22000;BME280;11164;48.818;2.322;2023-03-23T06:05:23;99684.56;;;14.79;44.84
22000;BME280;11164;48.818;2.322;2023-03-23T06:07:51;99690.09;;;14.68;45.14
22000;BME280;11164;48.818;2.322;2023-03-23T06:10:17;99690.09;;;14.68;45.10
22000;BME280;11164;48.818;2.322;2023-03-23T06:12:43;99683.84;;;14.67;45.13
22000;BME280;11164;48.818;2.322;2023-03-23T06:15:09;99686.41;;;14.74;45.01
22000;BME280;11164;48.818;2.322;2023-03-23T06:17:36;99690.81;;;14.80;44.85
22000;BME280;11164;48.818;2.322;2023-03-23T06:20:03;99692.31;;;14.71;45.28
22000;BME280;11164;48.818;2.322;2023-03-23T06:22:32;99693.56;;;14.63;45.42
22000;BME280;11164;48.818;2.322;2023-03-23T06:24:58;99696.03;;;14.65;45.40
22000;BME280;11164;48.818;2.322;2023-03-23T06:27:23;99697.09;;;14.63;45.59
22000;BME280;11164;48.818;2.322;2023-03-23T06:29:49;99697.81;;;14.76;45.29
22000;BME280;11164;48.818;2.322;2023-03-23T06:32:15;99694.81;;;14.89;44.99
22000;BME280;11164;48.818;2.322;2023-03-23T06:34:40;99690.50;;;14.76;45.33
22000;BME280;11164;48.818;2.322;2023-03-23T06:37:09;99693.72;;;14.73;45.41
22000;BME280;11164;48.818;2.322;2023-03-23T06:39:34;99701.78;;;14.85;45.44
22000;BME280;11164;48.818;2.322;2023-03-23T06:42:01;99709.81;;;14.97;45.07
22000;BME280;11164;48.818;2.322;2023-03-23T06:44:26;99712.38;;;15.04;44.94
22000;BME280;11164;48.818;2.322;2023-03-23T06:46:51;99713.38;;;14.97;45.32
22000;BME280;11164;48.818;2.322;2023-03-23T06:49:17;99715.16;;;15.09;44.96
22000;BME280;11164;48.818;2.322;2023-03-23T06:51:42;99730.16;;;15.11;44.94
22000;BME280;11164;48.818;2.322;2023-03-23T06:54:08;99724.50;;;15.18;44.92
22000;BME280;11164;48.818;2.322;2023-03-23T06:56:33;99738.53;;;15.32;44.80
22000;BME280;11164;48.818;2.322;2023-03-23T06:58:59;99734.47;;;15.12;45.10
22000;BME280;11164;48.818;2.322;2023-03-23T07:01:25;99744.69;;;15.22;45.05
22000;BME280;11164;48.818;2.322;2023-03-23T07:03:50;99751.66;;;15.18;44.92
22000;BME280;11164;48.818;2.322;2023-03-23T07:06:16;99749.81;;;15.02;45.80
22000;BME280;11164;48.818;2.322;2023-03-23T07:08:42;99748.31;;;14.94;46.05
22000;BME280;11164;48.818;2.322;2023-03-23T07:11:07;99741.84;;;14.95;45.89
22000;BME280;11164;48.818;2.322;2023-03-23T07:13:33;99740.53;;;14.97;45.92
22000;BME280;11164;48.818;2.322;2023-03-23T07:15:58;99743.59;;;15.23;45.36
22000;BME280;11164;48.818;2.322;2023-03-23T07:18:25;99745.81;;;15.26;45.52
22000;BME280;11164;48.818;2.322;2023-03-23T07:20:52;99739.31;;;15.27;45.62
22000;BME280;11164;48.818;2.322;2023-03-23T07:23:18;99747.16;;;15.46;45.30
22000;BME280;11164;48.818;2.322;2023-03-23T07:25:45;99762.81;;;15.38;45.41
22000;BME280;11164;48.818;2.322;2023-03-23T07:28:11;99748.72;;;15.42;45.39
22000;BME280;11164;48.818;2.322;2023-03-23T07:30:37;99748.97;;;15.40;45.26
22000;BME280;11164;48.818;2.322;2023-03-23T07:33:08;99746.09;;;15.47;45.35
22000;BME280;11164;48.818;2.322;2023-03-23T07:35:34;99725.94;;;15.43;45.13
22000;BME280;11164;48.818;2.322;2023-03-23T07:37:59;99755.47;;;15.78;44.83
22000;BME280;11164;48.818;2.322;2023-03-23T07:40:25;99758.09;;;15.73;44.86
22000;BME280;11164;48.818;2.322;2023-03-23T07:42:53;99752.19;;;15.76;44.81
22000;BME280;11164;48.818;2.322;2023-03-23T07:45:21;99757.50;;;15.88;44.62
22000;BME280;11164;48.818;2.322;2023-03-23T07:47:46;99771.97;;;15.54;45.31
22000;BME280;11164;48.818;2.322;2023-03-23T07:50:12;99767.69;;;15.59;45.25
22000;BME280;11164;48.818;2.322;2023-03-23T07:52:39;99785.97;;;15.24;45.87
22000;BME280;11164;48.818;2.322;2023-03-23T07:55:08;99792.16;;;15.59;44.96
22000;BME280;11164;48.818;2.322;2023-03-23T07:57:34;99779.25;;;15.49;45.25
22000;BME280;11164;48.818;2.322;2023-03-23T08:00:00;99753.34;;;15.41;45.16
22000;BME280;11164;48.818;2.322;2023-03-23T08:02:28;99780.06;;;15.49;45.17
22000;BME280;11164;48.818;2.322;2023-03-23T08:04:53;99783.28;;;15.68;44.80
22000;BME280;11164;48.818;2.322;2023-03-23T08:07:21;99775.84;;;15.75;44.71
22000;BME280;11164;48.818;2.322;2023-03-23T08:09:47;99790.88;;;15.66;44.87
22000;BME280;11164;48.818;2.322;2023-03-23T08:12:13;99789.19;;;15.60;44.94
22000;BME280;11164;48.818;2.322;2023-03-23T08:14:39;99793.84;;;15.43;45.20
22000;BME280;11164;48.818;2.322;2023-03-23T08:17:07;99790.53;;;15.41;45.41
22000;BME280;11164;48.818;2.322;2023-03-23T08:19:32;99779.03;;;15.33;45.31
22000;BME280;11164;48.818;2.322;2023-03-23T08:22:03;99762.63;;;15.45;45.04
22000;BME280;11164;48.818;2.322;2023-03-23T08:24:29;99780.66;;;15.96;44.15
22000;BME280;11164;48.818;2.322;2023-03-23T08:26:54;99789.63;;;15.96;44.41
22000;BME280;11164;48.818;2.322;2023-03-23T08:29:19;99786.09;;;15.96;44.29
22000;BME280;11164;48.818;2.322;2023-03-23T08:31:45;99798.59;;;16.19;44.10
22000;BME280;11164;48.818;2.322;2023-03-23T08:34:10;99786.31;;;16.38;43.74
22000;BME280;11164;48.818;2.322;2023-03-23T08:36:36;99775.78;;;16.79;43.18
22000;BME280;11164;48.818;2.322;2023-03-23T08:39:03;99790.03;;;16.92;43.26
22000;BME280;11164;48.818;2.322;2023-03-23T08:41:30;99795.06;;;16.45;43.94
22000;BME280;11164;48.818;2.322;2023-03-23T08:43:56;99798.59;;;16.46;43.99
22000;BME280;11164;48.818;2.322;2023-03-23T08:46:22;99798.91;;;16.49;43.93
22000;BME280;11164;48.818;2.322;2023-03-23T08:48:47;99772.22;;;16.46;43.76
22000;BME280;11164;48.818;2.322;2023-03-23T08:51:13;99789.06;;;16.43;43.75
22000;BME280;11164;48.818;2.322;2023-03-23T08:53:39;99789.53;;;16.35;44.13
22000;BME280;11164;48.818;2.322;2023-03-23T08:56:09;99786.22;;;16.60;43.31
22000;BME280;11164;48.818;2.322;2023-03-23T08:58:38;99785.81;;;16.46;43.54
22000;BME280;11164;48.818;2.322;2023-03-23T09:01:06;99793.31;;;16.34;44.00
22000;BME280;11164;48.818;2.322;2023-03-23T09:03:33;99790.66;;;16.39;43.91
22000;BME280;11164;48.818;2.322;2023-03-23T09:06:01;99774.22;;;16.29;43.87
22000;BME280;11164;48.818;2.322;2023-03-23T09:08:28;99801.97;;;16.31;43.70
22000;BME280;11164;48.818;2.322;2023-03-23T09:11:04;99816.94;;;16.28;43.88
22000;BME280;11164;48.818;2.322;2023-03-23T09:13:30;99819.91;;;16.27;43.52
22000;BME280;11164;48.818;2.322;2023-03-23T09:15:56;99806.81;;;16.51;43.08
22000;BME280;11164;48.818;2.322;2023-03-23T09:18:23;99816.47;;;16.64;43.10
22000;BME280;11164;48.818;2.322;2023-03-23T09:20:52;99808.94;;;16.71;43.07
22000;BME280;11164;48.818;2.322;2023-03-23T09:23:18;99800.00;;;17.13;42.56
22000;BME280;11164;48.818;2.322;2023-03-23T09:25:43;99796.00;;;17.26;42.16
22000;BME280;11164;48.818;2.322;2023-03-23T09:28:09;99778.41;;;17.01;42.41
22000;BME280;11164;48.818;2.322;2023-03-23T09:30:36;99781.13;;;17.01;42.82
22000;BME280;11164;48.818;2.322;2023-03-23T09:33:03;99787.75;;;17.16;42.20
22000;BME280;11164;48.818;2.322;2023-03-23T09:35:31;99786.44;;;17.18;42.03
22000;BME280;11164;48.818;2.322;2023-03-23T09:37:58;99788.44;;;16.96;42.57
22000;BME280;11164;48.818;2.322;2023-03-23T09:40:48;99799.78;;;16.55;42.29
22000;BME280;11164;48.818;2.322;2023-03-23T09:46:02;99805.63;;;17.39;40.22
22000;BME280;11164;48.818;2.322;2023-03-23T09:54:27;99807.13;;;16.55;41.99
22000;BME280;11164;48.818;2.322;2023-03-23T09:56:54;99808.91;;;16.66;42.47
22000;BME280;11164;48.818;2.322;2023-03-23T10:02:15;99809.69;;;16.94;41.14
22000;BME280;11164;48.818;2.322;2023-03-23T10:04:46;99795.63;;;17.12;40.15
22000;BME280;11164;48.818;2.322;2023-03-23T10:07:20;99794.47;;;17.40;40.63
22000;BME280;11164;48.818;2.322;2023-03-23T10:09:48;99795.97;;;17.63;40.90
22000;BME280;11164;48.818;2.322;2023-03-23T10:12:23;99784.91;;;17.38;41.80
22000;BME280;11164;48.818;2.322;2023-03-23T10:17:44;99789.16;;;18.45;38.50
22000;BME280;11164;48.818;2.322;2023-03-23T10:20:18;99784.81;;;18.74;39.15
22000;BME280;11164;48.818;2.322;2023-03-23T10:22:56;99784.25;;;18.47;36.45
22000;BME280;11164;48.818;2.322;2023-03-23T10:25:29;99806.34;;;18.40;40.54
22000;BME280;11164;48.818;2.322;2023-03-23T10:28:11;99785.47;;;17.93;37.04
22000;BME280;11164;48.818;2.322;2023-03-23T10:33:29;99787.97;;;18.20;39.71
22000;BME280;11164;48.818;2.322;2023-03-23T10:36:14;99775.53;;;18.45;37.56
22000;BME280;11164;48.818;2.322;2023-03-23T10:38:45;99788.09;;;18.66;39.43
22000;BME280;11164;48.818;2.322;2023-03-23T10:41:19;99804.44;;;18.56;38.67
22000;BME280;11164;48.818;2.322;2023-03-23T10:43:46;99813.59;;;18.04;40.49
22000;BME280;11164;48.818;2.322;2023-03-23T10:46:37;99813.47;;;17.73;37.80
22000;BME280;11164;48.818;2.322;2023-03-23T10:49:08;99787.66;;;18.06;39.83
22000;BME280;11164;48.818;2.322;2023-03-23T10:51:40;99777.13;;;18.41;38.86
22000;BME280;11164;48.818;2.322;2023-03-23T10:54:07;99806.38;;;18.66;39.17
22000;BME280;11164;48.818;2.322;2023-03-23T10:56:40;99799.25;;;18.49;38.43
22000;BME280;11164;48.818;2.322;2023-03-23T10:59:15;99777.50;;;17.81;38.34
22000;BME280;11164;48.818;2.322;2023-03-23T11:01:44;99781.53;;;18.62;38.30
22000;BME280;11164;48.818;2.322;2023-03-23T11:04:12;99771.41;;;19.04;38.45
22000;BME280;11164;48.818;2.322;2023-03-23T11:06:44;99786.69;;;18.33;37.36
22000;BME280;11164;48.818;2.322;2023-03-23T11:09:16;99795.44;;;17.67;37.69
22000;BME280;11164;48.818;2.322;2023-03-23T11:11:51;99789.56;;;17.95;37.68
22000;BME280;11164;48.818;2.322;2023-03-23T11:14:25;99794.91;;;18.94;36.94
22000;BME280;11164;48.818;2.322;2023-03-23T11:16:54;99790.75;;;19.38;37.53
22000;BME280;11164;48.818;2.322;2023-03-23T11:19:34;99804.75;;;19.26;34.52
22000;BME280;11164;48.818;2.322;2023-03-23T11:24:31;99786.16;;;18.51;38.25
22000;BME280;11164;48.818;2.322;2023-03-23T11:26:59;99785.06;;;18.42;38.42
22000;BME280;11164;48.818;2.322;2023-03-23T11:29:26;99786.97;;;18.93;37.85
22000;BME280;11164;48.818;2.322;2023-03-23T11:32:03;99796.28;;;19.02;35.72
22000;BME280;11164;48.818;2.322;2023-03-23T11:34:35;99791.63;;;18.82;38.02
22000;BME280;11164;48.818;2.322;2023-03-23T11:37:02;99779.06;;;18.50;38.40
22000;BME280;11164;48.818;2.322;2023-03-23T11:39:34;99773.06;;;18.59;38.02
22000;BME280;11164;48.818;2.322;2023-03-23T11:42:11;99773.84;;;19.26;36.98
22000;BME280;11164;48.818;2.322;2023-03-23T11:44:42;99770.06;;;19.06;34.66
22000;BME280;11164;48.818;2.322;2023-03-23T11:47:32;99767.31;;;18.40;35.89
22000;BME280;11164;48.818;2.322;2023-03-23T11:50:08;99769.75;;;19.03;36.65
22000;BME280;11164;48.818;2.322;2023-03-23T11:52:44;99773.31;;;19.19;35.66
22000;BME280;11164;48.818;2.322;2023-03-23T11:55:16;99775.19;;;19.39;36.67
22000;BME280;11164;48.818;2.322;2023-03-23T11:57:43;99789.75;;;19.99;36.29
22000;BME280;11164;48.818;2.322;2023-03-23T12:00:17;99780.59;;;19.64;34.09
22000;BME280;11164;48.818;2.322;2023-03-23T12:03:05;99775.88;;;19.80;34.41
22000;BME280;11164;48.818;2.322;2023-03-23T12:05:56;99778.16;;;19.53;33.79
22000;BME280;11164;48.818;2.322;2023-03-23T12:11:13;99784.53;;;18.86;35.78
22000;BME280;11164;48.818;2.322;2023-03-23T12:27:55;99779.66;;;20.39;32.74
22000;BME280;11164;48.818;2.322;2023-03-23T12:30:38;99774.13;;;20.55;35.09
22000;BME280;11164;48.818;2.322;2023-03-23T12:39:25;99784.78;;;20.51;31.83
22000;BME280;11164;48.818;2.322;2023-03-23T12:44:49;99758.81;;;21.12;31.27
22000;BME280;11164;48.818;2.322;2023-03-23T12:50:11;99738.56;;;20.05;34.46
22000;BME280;11164;48.818;2.322;2023-03-23T12:55:26;99760.22;;;20.41;31.02
22000;BME280;11164;48.818;2.322;2023-03-23T12:58:00;99759.22;;;19.82;33.78
22000;BME280;11164;48.818;2.322;2023-03-23T13:00:33;99766.31;;;20.28;34.63
22000;BME280;11164;48.818;2.322;2023-03-23T13:06:00;99760.53;;;20.34;33.77
22000;BME280;11164;48.818;2.322;2023-03-23T13:08:26;99746.13;;;20.53;33.71
22000;BME280;11164;48.818;2.322;2023-03-23T13:10:57;99736.84;;;20.88;33.92
22000;BME280;11164;48.818;2.322;2023-03-23T13:13:43;99736.63;;;21.09;31.63
22000;BME280;11164;48.818;2.322;2023-03-23T13:16:22;99731.34;;;21.17;32.61
22000;BME280;11164;48.818;2.322;2023-03-23T13:24:20;99708.72;;;21.74;33.20
22000;BME280;11164;48.818;2.322;2023-03-23T13:26:49;99703.31;;;21.69;33.20
22000;BME280;11164;48.818;2.322;2023-03-23T13:29:20;99684.06;;;21.50;33.63
22000;BME280;11164;48.818;2.322;2023-03-23T13:31:49;99680.19;;;22.13;32.88
22000;BME280;11164;48.818;2.322;2023-03-23T13:34:21;99684.94;;;22.07;31.17
22000;BME280;11164;48.818;2.322;2023-03-23T13:36:59;99682.84;;;21.61;30.33
22000;BME280;11164;48.818;2.322;2023-03-23T13:39:30;99675.53;;;21.32;32.79
22000;BME280;11164;48.818;2.322;2023-03-23T13:47:26;99660.38;;;21.59;32.22
22000;BME280;11164;48.818;2.322;2023-03-23T13:49:59;99653.09;;;21.49;31.78
22000;BME280;11164;48.818;2.322;2023-03-23T13:58:11;99658.22;;;21.56;28.93
22000;BME280;11164;48.818;2.322;2023-03-23T14:00:45;99651.31;;;21.59;31.54
22000;BME280;11164;48.818;2.322;2023-03-23T14:03:23;99652.03;;;21.26;31.89
22000;BME280;11164;48.818;2.322;2023-03-23T14:08:38;99644.78;;;20.87;30.57
22000;BME280;11164;48.818;2.322;2023-03-23T14:11:12;99639.66;;;20.51;31.74
22000;BME280;11164;48.818;2.322;2023-03-23T14:13:48;99640.06;;;20.69;32.42
22000;BME280;11164;48.818;2.322;2023-03-23T14:16:31;99624.94;;;20.71;31.24
22000;BME280;11164;48.818;2.322;2023-03-23T14:19:00;99626.94;;;20.66;32.72
22000;BME280;11164;48.818;2.322;2023-03-23T14:24:11;99623.63;;;20.69;32.37
22000;BME280;11164;48.818;2.322;2023-03-23T14:26:38;99622.63;;;20.84;32.54
22000;BME280;11164;48.818;2.322;2023-03-23T14:29:05;99619.06;;;20.83;32.76
22000;BME280;11164;48.818;2.322;2023-03-23T14:31:31;99618.72;;;20.90;32.46
22000;BME280;11164;48.818;2.322;2023-03-23T14:34:02;99616.28;;;20.64;32.21
22000;BME280;11164;48.818;2.322;2023-03-23T14:36:30;99620.13;;;20.87;31.94
22000;BME280;11164;48.818;2.322;2023-03-23T14:41:30;99619.44;;;19.78;33.27
22000;BME280;11164;48.818;2.322;2023-03-23T14:43:57;99608.94;;;20.25;32.56
22000;BME280;11164;48.818;2.322;2023-03-23T14:46:24;99608.94;;;20.25;32.63
22000;BME280;11164;48.818;2.322;2023-03-23T14:48:49;99607.84;;;20.26;32.67